LIMJLIMP

Guest
Details From LIMJ - Genova Sestri
To LIMP - PARMA
Flight Number -
Tags generated
Created
Modified
Stats Distance 67 nm / 124 km
Max Altitude 0 ft / 0 m
Waypoints 3
Social Downloads 3
Likes 0
Share VATSIM

Download

Looking for another format? Having issues loading an existing format? Contact us
Advertisement - Login to hide

Notes

Basic altitude profile: - Ascent Rate: 2500ft/min - Ascent Speed: 250kts - Cruise Altitude: 35000ft - Cruise Speed: 420kts - Descent Rate: 1500ft/min - Descent Speed: 250kts

Route

LIMJ PAR LIMP

ID Type Via Altitude Latitude Longitude Leg Dist Tot Dist Heading (true) Name
O LIMJ APT - 0 ft / 0 m 44.41196˚ 8.84187˚ - 0 nm - Genova Sestri
PAR NDB - 0 ft / 0 m 44.82229˚ 10.29327˚ 66 nm 66 nm 68° / 69° PARMA NDB
O LIMP APT - 0 ft / 0 m 44.82677˚ 10.29711˚ 0 nm 67 nm 31° / 31° PARMA

Altitude Profile

Advertisement - Login to hide

LIMJ

Details ICAO LIMJ (GOA)
Name Genova Sestri
Region Italy
Timezone Unknown (UTC+0.0)
Stats Elevation 13 ft / 4 m (AMSL)
Location 44.411957° 8.841866°
Runways 1
Magnetic Variation 2.388° E

METAR

LIMJ 170750Z VRB04KT 9999 SCT060 08/M06 Q1018

Decode

TAF

TAF LIMJ 170500Z 1706/1806 04012KT CAVOK

Decode

Departure Runways

ID Width Length Bearing (true) Bearing (mag) Surface Threshold Offset Overrun Length
10 148 ft / 45 m 9,574 ft / 2,918 m 105.39° 103.00° Asphalt 0 ft / 0 m 0 ft / 0 m
28 148 ft / 45 m 9,574 ft / 2,918 m 285.41° 283.02° Asphalt 538 ft / 164 m 0 ft / 0 m

LIMP

Details ICAO LIMP (PMF)
Name PARMA
Region Italy
Timezone Europe/Rome (UTC+1.0)
Stats Elevation 161 ft / 49 m (AMSL)
Location 44.826774° 10.297108°
Runways 1
Magnetic Variation 2.716° E

METAR

LIMP 170750Z 26004KT CAVOK M01/M02 Q1019

Decode

TAF

TAF LIMP 170500Z 1706/1806 30006KT 5000 BR NSC TEMPO 1706/1708 0500 FG

Decode

Destination Runways

ID Width Length Bearing (true) Bearing (mag) Surface Threshold Offset Overrun Length
02 148 ft / 45 m 6,966 ft / 2,123 m 17.20° 14.48° Asphalt 702 ft / 214 m 0 ft / 0 m
20 148 ft / 45 m 6,966 ft / 2,123 m 197.20° 194.48° Asphalt 597 ft / 182 m 0 ft / 0 m

Approach Navaids

Runway Type Ident Frequency Range Bearing (true) Bearing (mag) Slope Elevation
20 Localiser IPR 110.50 MHz 18 nm / 33 km 197.37° 194.66° - 163 ft / 50 m (AMSL)
20 Glidescope IPR 110.50 MHz 10 nm / 19 km 197.20° 194.48° 3.00° 145 ft / 44 m (AMSL)
20 DME IPR 110.50 MHz 18 nm / 33 km - - - 163 ft / 50 m (AMSL)